This is the latest recevied weather packets stored in our database for station/object N0TKN. If no packets are shown the sender has not sent any weather packets the latest 10 day(s).
| Time | Temp. | Humidity | Pressure | Rain* | Wind** | Luminosity | Snow |
|---|---|---|---|---|---|---|---|
| 1778081116 | 12.22° C | 70% | 1015.4 hPa | 0 mm | - | 737 W/m² | - |
| 1778080517 | 12.22° C | 76% | 1015 hPa | 0 mm | - | 718 W/m² | - |
| 1778079917 | 11.67° C | 80% | 1015.2 hPa | 0 mm | - | 622 W/m² | - |
| 1778079317 | 11.11° C | 84% | 1015 hPa | 0 mm | - | 578 W/m² | - |
| 1778078717 | 10.56° C | 87% | 1015.2 hPa | 0 mm | - | 396 W/m² | - |
| 1778078117 | 10.56° C | 88% | 1015.1 hPa | 0 mm | - | 336 W/m² | - |
| 1778077524 | 10° C | 89% | 1015.2 hPa | 0 mm | - | 298 W/m² | - |
| 1778076923 | 10° C | 89% | 1014.8 hPa | 0 mm | - | 293 W/m² | - |
| 1778076324 | 10° C | 91% | 1014.5 hPa | 0 mm | - | 282 W/m² | - |
| 1778075723 | 9.44° C | 95% | 1014.7 hPa | 0 mm | - | 201 W/m² | - |
| 1778075124 | 8.89° C | 96% | 1015.1 hPa | 0 mm | - | 136 W/m² | - |
| 1778074524 | 8.89° C | 96% | 1015.2 hPa | 0 mm | - | 103 W/m² | - |
| 1778073924 | 8.89° C | 97% | 1015.3 hPa | 0 mm | - | 98 W/m² | - |
| 1778073325 | 8.33° C | 96% | 1015.3 hPa | 0 mm | - | 133 W/m² | - |
| 1778072725 | 8.33° C | 97% | 1015.5 hPa | 0 mm | - | 89 W/m² | - |
| 1778072125 | 8.33° C | 96% | 1015.3 hPa | 0 mm | - | 90 W/m² | - |
| 1778071525 | 7.78° C | 96% | 1015.4 hPa | 0 mm | - | 70 W/m² | - |
| 1778070925 | 7.78° C | 97% | 1015.6 hPa | 0 mm | - | 47 W/m² | - |
| 1778070325 | 7.78° C | 98% | 1015.5 hPa | 0 mm | - | 69 W/m² | - |
| 1778069726 | 7.22° C | 99% | 1015.4 hPa | 0 mm | - | 44 W/m² | - |
| 1778069126 | 7.22° C | 99% | 1015.6 hPa | 0 mm | - | 25 W/m² | - |
| 1778068526 | 7.22° C | 99% | 1015.6 hPa | 0 mm | - | 18 W/m² | - |
| 1778067926 | 7.22° C | 99% | 1015.1 hPa | 0 mm | - | 16 W/m² | - |
| 1778067328 | 7.22° C | 99% | 1015 hPa | 0 mm | - | 8 W/m² | - |
| 1778066728 | 7.22° C | 99% | 1014.7 hPa | 0 mm | - | 5 W/m² | - |
* Rain latest hour (hover to see other rain measurements)
** Current wind speed in m/s (hover to see current wind gust speed)